createdAt,value
2022-12-06T00:01:28.782Z,-1.89
2022-12-06T00:04:00.755Z,-1.89
2022-12-06T00:06:31.393Z,-1.90
2022-12-06T00:09:00.202Z,-1.91
2022-12-06T00:11:33.298Z,-1.93
2022-12-06T00:14:07.139Z,-1.93
2022-12-06T00:16:35.558Z,-1.93
2022-12-06T00:19:04.340Z,-1.93
2022-12-06T00:21:37.431Z,-1.92
2022-12-06T00:24:07.616Z,-1.92
2022-12-06T00:26:40.400Z,-1.94
2022-12-06T00:29:11.112Z,-1.94
2022-12-06T00:31:38.823Z,-1.98
2022-12-06T00:34:06.454Z,-2.00
2022-12-06T00:36:37.855Z,-1.98
2022-12-06T00:39:09.192Z,-1.95
2022-12-06T00:41:36.945Z,-1.94
2022-12-06T00:44:05.888Z,-1.94
2022-12-06T00:46:34.785Z,-1.94
2022-12-06T00:49:04.683Z,-1.94
2022-12-06T00:51:34.791Z,-1.95
2022-12-06T00:54:03.030Z,-1.95
2022-12-06T00:56:31.851Z,-1.94
2022-12-06T00:58:59.667Z,-1.95
2022-12-06T01:01:30.497Z,-1.95
2022-12-06T01:04:01.119Z,-1.97
2022-12-06T01:06:32.246Z,-1.98
2022-12-06T01:09:06.621Z,-1.97
2022-12-06T01:11:34.962Z,-1.97
2022-12-06T01:14:03.121Z,-1.99
2022-12-06T01:16:31.884Z,-1.99
2022-12-06T01:19:02.349Z,-2.00
2022-12-06T01:21:30.111Z,-2.01
2022-12-06T01:23:57.790Z,-2.02
2022-12-06T01:26:29.854Z,-2.00
2022-12-06T01:28:59.166Z,-1.99
2022-12-06T01:31:35.515Z,-2.01
2022-12-06T01:34:09.559Z,-2.01
2022-12-06T01:36:37.038Z,-2.02
2022-12-06T01:39:07.781Z,-2.03
2022-12-06T01:41:37.012Z,-2.05
2022-12-06T01:44:05.556Z,-2.05
2022-12-06T01:46:41.336Z,-2.03
2022-12-06T01:49:20.759Z,-2.02
2022-12-06T01:51:58.795Z,-2.01
2022-12-06T01:54:26.839Z,-2.00
2022-12-06T01:56:55.437Z,-1.99
2022-12-06T01:59:23.574Z,-2.00
2022-12-06T02:01:51.418Z,-1.98
2022-12-06T02:04:19.268Z,-1.96
2022-12-06T02:06:47.499Z,-1.94
2022-12-06T02:09:16.189Z,-1.93
2022-12-06T02:11:43.808Z,-1.94
2022-12-06T02:14:15.773Z,-1.94
2022-12-06T02:17:03.849Z,-1.94
2022-12-06T02:19:37.129Z,-1.95
2022-12-06T02:22:23.001Z,-1.94
2022-12-06T02:25:17.366Z,-1.93
2022-12-06T02:28:34.323Z,-1.91
2022-12-06T02:31:07.723Z,-1.88
2022-12-06T02:33:42.514Z,-1.88
2022-12-06T02:36:23.153Z,-1.89
2022-12-06T02:38:59.363Z,-1.91
2022-12-06T02:42:01.210Z,-1.89
2022-12-06T02:44:54.318Z,-1.87
2022-12-06T02:47:27.068Z,-1.86
2022-12-06T02:49:57.265Z,-1.84
2022-12-06T02:52:26.825Z,-1.82
2022-12-06T02:54:57.450Z,-1.81
2022-12-06T02:57:39.737Z,-1.82
2022-12-06T03:00:35.271Z,-1.84
2022-12-06T03:03:59.242Z,-1.81
2022-12-06T03:06:46.634Z,-1.80
2022-12-06T03:09:22.650Z,-1.81
2022-12-06T03:12:34.941Z,-1.82
2022-12-06T03:15:35.973Z,-1.86
2022-12-06T03:18:48.098Z,-1.86
2022-12-06T03:21:39.052Z,-1.84
2022-12-06T03:24:10.424Z,-1.81
2022-12-06T03:26:37.880Z,-1.79
2022-12-06T03:29:09.365Z,-1.78
2022-12-06T03:31:39.399Z,-1.81
2022-12-06T03:34:17.238Z,-1.84
2022-12-06T03:36:46.670Z,-1.83
2022-12-06T03:39:22.073Z,-1.80
2022-12-06T03:41:55.365Z,-1.76
2022-12-06T03:44:23.875Z,-1.73
2022-12-06T03:46:58.900Z,-1.74
2022-12-06T03:49:35.417Z,-1.76
2022-12-06T03:52:03.756Z,-1.77
2022-12-06T03:54:31.455Z,-1.76
2022-12-06T03:56:59.066Z,-1.72
2022-12-06T03:59:26.979Z,-1.70
2022-12-06T04:01:54.868Z,-1.70
2022-12-06T04:04:24.289Z,-1.69
2022-12-06T04:06:53.842Z,-1.70
2022-12-06T04:09:40.280Z,-1.72
2022-12-06T04:12:28.043Z,-1.77
2022-12-06T04:14:55.902Z,-1.76
2022-12-06T04:17:42.392Z,-1.73
2022-12-06T04:20:10.497Z,-1.70
2022-12-06T04:22:56.828Z,-1.70
2022-12-06T04:25:25.142Z,-1.70
2022-12-06T04:28:11.667Z,-1.71
2022-12-06T04:30:58.207Z,-1.69
2022-12-06T04:33:44.791Z,-1.67
2022-12-06T04:36:31.502Z,-1.66
2022-12-06T04:38:59.881Z,-1.66
2022-12-06T04:41:46.966Z,-1.67
2022-12-06T04:44:14.767Z,-1.68
2022-12-06T04:46:42.787Z,-1.71
2022-12-06T04:49:10.552Z,-1.72
2022-12-06T04:51:39.457Z,-1.73
2022-12-06T04:54:07.230Z,-1.73
2022-12-06T04:56:34.961Z,-1.72
2022-12-06T04:59:03.689Z,-1.71
2022-12-06T05:01:31.788Z,-1.70
2022-12-06T05:03:59.712Z,-1.71
2022-12-06T05:06:28.766Z,-1.69
2022-12-06T05:08:58.739Z,-1.67
2022-12-06T05:11:38.576Z,-1.66
2022-12-06T05:14:28.139Z,-1.64
2022-12-06T05:17:28.685Z,-1.64
2022-12-06T05:21:17.158Z,-1.64
2022-12-06T05:23:51.330Z,-1.63
2022-12-06T05:26:39.634Z,-1.62
2022-12-06T05:29:08.061Z,-1.59
2022-12-06T05:31:36.090Z,-1.59
2022-12-06T05:34:17.870Z,-1.60
2022-12-06T05:36:58.876Z,-1.70
2022-12-06T05:39:26.763Z,-1.63
2022-12-06T05:41:54.824Z,-1.61
2022-12-06T05:44:23.109Z,-1.59
2022-12-06T05:46:54.287Z,-1.57
2022-12-06T05:49:21.969Z,-1.57
2022-12-06T05:51:51.121Z,-1.57
2022-12-06T05:55:14.396Z,-1.58
2022-12-06T05:58:09.431Z,-1.54
2022-12-06T06:02:35.252Z,-1.52
2022-12-06T06:05:05.877Z,-1.51
2022-12-06T06:10:37.856Z,-1.48
2022-12-06T06:13:12.268Z,-1.46
2022-12-06T06:15:57.042Z,-1.44
2022-12-06T06:18:26.513Z,-1.43
2022-12-06T06:21:29.737Z,-1.41
2022-12-06T06:24:08.832Z,-1.44
2022-12-06T06:26:38.966Z,-1.43
2022-12-06T06:29:12.411Z,-1.41
2022-12-06T06:35:44.637Z,-1.36
2022-12-06T06:38:23.467Z,-1.35
2022-12-06T06:41:31.054Z,-1.34
2022-12-06T06:45:09.442Z,-1.30
2022-12-06T06:48:10.218Z,-1.27
2022-12-06T06:51:31.946Z,-1.25
2022-12-06T07:01:46.594Z,-1.21
2022-12-06T07:07:41.005Z,-1.14
2022-12-06T07:11:00.703Z,-1.13
2022-12-06T07:14:27.435Z,-1.14
2022-12-06T07:22:11.649Z,-1.11
2022-12-06T14:37:27.409Z,1.07
2022-12-06T14:40:43.851Z,1.02
2022-12-06T14:43:26.657Z,0.98
2022-12-06T14:46:29.984Z,0.94
2022-12-06T14:49:41.572Z,0.88
2022-12-06T14:53:11.106Z,0.84
2022-12-06T14:56:34.014Z,0.81
2022-12-06T14:59:13.841Z,0.78
2022-12-06T15:05:57.647Z,0.72
2022-12-06T15:09:24.645Z,0.70
2022-12-06T15:13:24.556Z,0.71
2022-12-06T15:16:30.124Z,0.72
2022-12-06T15:19:19.299Z,0.74
2022-12-06T15:22:27.455Z,0.76
2022-12-06T15:25:23.173Z,0.72
2022-12-06T15:28:35.586Z,0.77
2022-12-06T15:31:47.511Z,0.80
2022-12-06T15:34:34.538Z,0.83
2022-12-06T15:37:37.440Z,0.84
2022-12-06T15:40:27.218Z,0.85
2022-12-06T15:43:35.680Z,0.82
2022-12-06T15:46:35.278Z,0.80
2022-12-06T15:49:29.620Z,0.82
2022-12-06T15:52:25.111Z,0.82
2022-12-06T15:54:59.381Z,0.82
2022-12-06T15:57:30.917Z,0.83
2022-12-06T16:00:04.523Z,0.81
2022-12-06T16:03:02.092Z,0.79
2022-12-06T16:05:51.626Z,0.79
2022-12-06T16:08:40.943Z,0.80
2022-12-06T16:11:58.098Z,0.80
2022-12-06T16:18:21.503Z,0.86
2022-12-06T16:21:00.522Z,0.84
2022-12-06T16:24:15.050Z,0.86
2022-12-06T16:26:50.210Z,0.86
2022-12-06T16:29:28.369Z,0.85
2022-12-06T16:32:13.265Z,0.85
2022-12-06T16:35:06.492Z,0.84
2022-12-06T16:38:42.004Z,0.83
2022-12-06T17:15:40.217Z,1.30
2022-12-06T17:18:16.271Z,1.28
2022-12-06T17:20:51.784Z,1.25
2022-12-06T17:23:31.978Z,1.22
2022-12-06T17:26:48.773Z,1.19
2022-12-06T17:29:28.131Z,1.18
2022-12-06T17:32:00.788Z,1.18
2022-12-06T17:34:34.737Z,1.19
2022-12-06T17:37:06.864Z,1.21
2022-12-06T17:40:02.709Z,1.22
2022-12-06T17:43:05.743Z,1.21
2022-12-06T17:45:56.088Z,1.19
2022-12-06T17:48:33.538Z,1.17
2022-12-06T17:51:45.225Z,1.19
2022-12-06T17:54:50.375Z,1.21
2022-12-06T18:00:46.084Z,1.20
2022-12-06T18:03:24.751Z,1.23
2022-12-06T18:06:07.498Z,1.27
2022-12-06T18:08:48.403Z,1.33
2022-12-06T18:11:33.010Z,1.39
2022-12-06T18:14:03.997Z,1.45
2022-12-06T18:16:41.411Z,1.50
2022-12-06T18:19:14.715Z,1.50
2022-12-06T18:21:46.169Z,1.52
2022-12-06T18:24:29.198Z,1.54
2022-12-06T18:27:01.929Z,1.57
2022-12-06T18:29:38.082Z,1.57
2022-12-06T18:32:07.407Z,1.58
2022-12-06T18:34:36.772Z,1.57
2022-12-06T18:37:09.312Z,1.54
2022-12-06T18:39:41.953Z,1.52
2022-12-06T18:42:19.498Z,1.53
2022-12-06T18:44:53.593Z,1.55
2022-12-06T18:47:31.685Z,1.55
2022-12-06T18:50:00.269Z,1.53
2022-12-06T18:52:29.481Z,1.51
2022-12-06T18:55:01.304Z,1.49
2022-12-06T18:57:39.198Z,1.44
2022-12-06T19:00:13.161Z,1.42
2022-12-06T19:02:41.038Z,1.42
2022-12-06T19:05:46.117Z,1.43
2022-12-06T19:08:15.750Z,1.43
2022-12-06T19:10:48.927Z,1.44
2022-12-06T19:13:23.591Z,1.44
2022-12-06T19:16:09.110Z,1.42
2022-12-06T19:18:39.096Z,1.41
2022-12-06T19:21:33.179Z,1.42
2022-12-06T19:24:01.906Z,1.45
2022-12-06T19:26:32.437Z,1.48
2022-12-06T19:29:03.267Z,1.49
2022-12-06T19:31:32.115Z,1.50
2022-12-06T19:34:01.939Z,1.49
2022-12-06T19:36:35.952Z,1.46
2022-12-06T19:39:06.368Z,1.45
2022-12-06T19:42:00.018Z,1.43
2022-12-06T19:44:29.375Z,1.42
2022-12-06T19:47:07.477Z,1.44
2022-12-06T19:49:35.758Z,1.43
2022-12-06T19:52:06.861Z,1.41
2022-12-06T19:54:38.073Z,1.39
2022-12-06T19:57:06.073Z,1.37
2022-12-06T19:59:47.338Z,1.35
2022-12-06T20:02:15.135Z,1.35
2022-12-06T20:04:49.731Z,1.35
2022-12-06T20:07:32.910Z,1.36
2022-12-06T20:10:02.530Z,1.33
2022-12-06T20:12:30.545Z,1.30
2022-12-06T20:14:58.380Z,1.30
2022-12-06T20:17:25.979Z,1.29
2022-12-06T20:19:53.580Z,1.29
2022-12-06T20:22:22.347Z,1.28
2022-12-06T20:24:50.066Z,1.26
2022-12-06T20:27:17.677Z,1.25
2022-12-06T20:29:45.767Z,1.24
2022-12-06T20:32:18.057Z,1.24
2022-12-06T20:34:50.859Z,1.24
2022-12-06T20:37:23.339Z,1.27
2022-12-06T20:39:51.329Z,1.29
2022-12-06T20:42:19.923Z,1.27
2022-12-06T20:44:47.449Z,1.27
2022-12-06T20:47:15.870Z,1.27
2022-12-06T20:49:44.045Z,1.28
2022-12-06T20:52:11.833Z,1.30
2022-12-06T20:54:43.543Z,1.33
2022-12-06T20:57:11.208Z,1.37
2022-12-06T20:59:39.520Z,1.39
2022-12-06T21:02:14.351Z,1.39
2022-12-06T21:04:43.329Z,1.39
2022-12-06T21:07:12.591Z,1.41
2022-12-06T21:09:43.265Z,1.46
2022-12-06T21:12:11.091Z,1.51
2022-12-06T21:14:38.640Z,1.54
2022-12-06T21:17:06.104Z,1.57
2022-12-06T21:19:37.293Z,1.60
2022-12-06T21:22:07.880Z,1.64
2022-12-06T21:24:35.519Z,1.67
2022-12-06T21:27:03.421Z,1.71
2022-12-06T21:29:32.265Z,1.77
2022-12-06T21:32:01.651Z,1.85
2022-12-06T21:34:29.789Z,1.94
2022-12-06T21:36:57.715Z,2.00
2022-12-06T21:39:25.927Z,2.03
2022-12-06T21:41:54.217Z,2.01
2022-12-06T21:44:23.673Z,2.02
2022-12-06T21:46:54.063Z,2.03
2022-12-06T21:49:24.035Z,2.00
2022-12-06T21:52:00.214Z,1.95
2022-12-06T21:54:29.986Z,1.91
2022-12-06T21:56:57.948Z,1.86
2022-12-06T21:59:26.245Z,1.81
2022-12-06T22:01:54.416Z,1.74
2022-12-06T22:04:21.631Z,1.70
2022-12-06T22:06:49.026Z,1.67
2022-12-06T22:09:16.870Z,1.67
2022-12-06T22:11:47.624Z,1.67
2022-12-06T22:14:16.078Z,1.68
2022-12-06T22:16:51.593Z,1.69
2022-12-06T22:19:21.104Z,1.71
2022-12-06T22:21:48.522Z,1.72
2022-12-06T22:24:16.279Z,1.74
2022-12-06T22:26:44.028Z,1.77
2022-12-06T22:29:13.453Z,1.80
2022-12-06T22:31:43.829Z,1.82
2022-12-06T22:34:12.122Z,1.85
2022-12-06T22:36:39.543Z,1.86
2022-12-06T22:39:07.588Z,1.90
2022-12-06T22:41:35.327Z,1.93
2022-12-06T22:44:06.907Z,1.98
2022-12-06T22:46:36.746Z,2.01
2022-12-06T22:49:06.539Z,2.04
2022-12-06T22:51:40.187Z,2.09
2022-12-06T22:54:11.770Z,2.10
2022-12-06T22:56:46.772Z,2.12
2022-12-06T22:59:20.772Z,2.17
2022-12-06T23:01:48.506Z,2.23
2022-12-06T23:04:16.637Z,2.28
2022-12-06T23:06:45.526Z,2.33
2022-12-06T23:09:16.191Z,2.37
2022-12-06T23:11:43.974Z,2.39
2022-12-06T23:14:11.834Z,2.43
2022-12-06T23:16:41.417Z,2.47
2022-12-06T23:32:37.783Z,3.11
2022-12-06T23:35:06.920Z,3.43
2022-12-06T23:37:35.826Z,3.43
2022-12-06T23:40:06.046Z,3.43
2022-12-06T23:42:35.261Z,3.44
2022-12-06T23:45:09.764Z,3.39
2022-12-06T23:47:43.469Z,3.28
2022-12-06T23:50:13.697Z,3.15
2022-12-06T23:52:42.228Z,3.04
2022-12-06T23:55:11.123Z,2.96
2022-12-06T23:57:39.957Z,2.83
